Time;durP1;ratioP1;P1;durP2;ratioP2;P2;SDS_P1;SDS_P2;PMS_P1;PMS_P2;Temp;Humidity;BMP_temperature;BMP_pressure;BME280_temperature;BME280_humidity;BME280_pressure;Samples;Min_cycle;Max_cycle;Signal;HPM_P1;HPM_P2
2023/01/06 00:00:08;;;;;;;7.53;2.72;;;9.50;98.60;;;;;;5053077;28;20473;-66
2023/01/06 00:02:34;;;;;;;9.13;2.00;;;9.50;98.50;;;;;;5053236;28;20033;-67
2023/01/06 00:04:59;;;;;;;11.75;2.80;;;9.50;98.50;;;;;;5052976;28;20035;-67
2023/01/06 00:07:25;;;;;;;7.72;2.08;;;9.50;98.20;;;;;;5052093;28;20074;-66
2023/01/06 00:09:51;;;;;;;8.70;2.00;;;9.50;98.20;;;;;;5052929;28;20098;-66
2023/01/06 00:12:16;;;;;;;7.30;2.10;;;9.60;98.10;;;;;;5052821;28;20163;-67
2023/01/06 00:14:43;;;;;;;7.90;2.50;;;9.60;98.20;;;;;;5052858;28;20060;-67
2023/01/06 00:17:09;;;;;;;10.63;2.33;;;9.60;98.20;;;;;;5052732;28;20032;-67
2023/01/06 00:19:35;;;;;;;8.13;2.13;;;9.60;98.20;;;;;;5053054;28;20028;-66
2023/01/06 00:22:00;;;;;;;8.88;2.72;;;9.60;98.10;;;;;;5052628;28;20059;-67
2023/01/06 00:24:26;;;;;;;9.98;2.28;;;9.60;98.30;;;;;;5052788;28;20097;-68
2023/01/06 00:26:52;;;;;;;6.43;1.88;;;9.60;98.50;;;;;;5052567;28;20022;-67
2023/01/06 00:29:17;;;;;;;5.18;2.03;;;9.60;98.50;;;;;;5052581;28;20032;-67
2023/01/06 00:31:43;;;;;;;9.25;1.90;;;9.60;98.40;;;;;;5052700;28;20025;-67
2023/01/06 00:34:10;;;;;;;7.13;2.33;;;9.70;98.30;;;;;;5051153;28;20037;-67
2023/01/06 00:36:35;;;;;;;7.57;2.20;;;9.70;98.20;;;;;;5051412;28;20032;-67
2023/01/06 00:39:01;;;;;;;8.45;1.83;;;9.70;98.40;;;;;;5051897;28;20049;-67
2023/01/06 00:44:11;;;;;;;9.30;2.35;;;9.70;98.40;;;;;;5052311;28;20036;-66
2023/01/06 00:46:37;;;;;;;10.00;2.33;;;9.70;98.20;;;;;;5052671;28;20025;-66
2023/01/06 00:49:03;;;;;;;9.85;2.53;;;9.70;98.20;;;;;;5051875;28;20108;-66
2023/01/06 00:51:29;;;;;;;6.47;2.00;;;9.70;98.10;;;;;;5052583;28;20055;-66
2023/01/06 00:53:58;;;;;;;8.00;2.33;;;9.70;98.10;;;;;;5052264;28;20029;-66
2023/01/06 00:56:24;;;;;;;9.48;2.40;;;9.70;97.70;;;;;;5052077;28;20382;-66
2023/01/06 00:58:49;;;;;;;9.82;2.80;;;9.70;97.50;;;;;;5051893;28;20052;-68
2023/01/06 01:01:15;;;;;;;8.85;2.05;;;9.70;97.10;;;;;;5052210;28;20055;-67
2023/01/06 01:03:41;;;;;;;9.45;2.03;;;9.70;96.80;;;;;;5052770;28;20025;-67
2023/01/06 01:06:08;;;;;;;7.85;2.83;;;9.80;96.40;;;;;;5051782;28;20485;-66
2023/01/06 01:08:34;;;;;;;10.38;2.35;;;9.80;96.20;;;;;;5052256;28;20060;-66
2023/01/06 01:11:05;;;;;;;10.25;2.40;;;9.80;96.30;;;;;;5051599;28;20075;-67
2023/01/06 01:13:31;;;;;;;10.25;2.05;;;9.80;96.10;;;;;;5052320;28;20044;-67
2023/01/06 01:16:02;;;;;;;10.90;1.75;;;9.80;96.00;;;;;;5052096;28;20021;-67
2023/01/06 01:18:27;;;;;;;7.45;2.00;;;9.80;95.80;;;;;;5052370;28;20036;-67
2023/01/06 01:20:53;;;;;;;9.68;2.10;;;9.80;95.90;;;;;;5051830;28;20028;-67
2023/01/06 01:23:19;;;;;;;9.65;2.47;;;9.80;95.90;;;;;;5052046;28;20390;-67
2023/01/06 01:25:44;;;;;;;8.90;2.50;;;9.80;96.00;;;;;;5052015;28;20025;-67
2023/01/06 01:28:10;;;;;;;7.60;2.10;;;9.80;95.80;;;;;;5051837;28;20025;-67
2023/01/06 01:30:36;;;;;;;9.45;2.38;;;9.80;95.90;;;;;;5052206;28;20025;-67
2023/01/06 01:33:01;;;;;;;9.55;2.30;;;9.80;96.00;;;;;;5051773;28;20025;-68
2023/01/06 01:35:27;;;;;;;6.35;2.38;;;9.80;96.10;;;;;;5052156;28;20029;-68
2023/01/06 01:37:52;;;;;;;12.85;2.72;;;9.80;96.30;;;;;;5052084;28;20033;-68
2023/01/06 01:40:18;;;;;;;8.35;1.85;;;9.80;96.30;;;;;;5051259;28;20045;-68
2023/01/06 01:42:43;;;;;;;9.20;2.40;;;9.80;96.10;;;;;;5051901;28;20036;-68
2023/01/06 01:45:24;;;;;;;11.43;2.20;;;9.80;95.90;;;;;;5051746;28;20375;-68
2023/01/06 01:47:52;;;;;;;8.80;2.50;;;9.80;95.60;;;;;;5052931;28;20047;-67
2023/01/06 01:50:31;;;;;;;6.25;1.88;;;9.80;95.50;;;;;;5055496;28;20036;-67
2023/01/06 01:53:07;;;;;;;11.48;2.35;;;9.80;95.10;;;;;;5055593;28;20520;-67
2023/01/06 01:55:36;;;;;;;11.05;2.08;;;9.80;95.00;;;;;;5055985;28;20029;-67
2023/01/06 01:58:12;;;;;;;9.50;2.33;;;9.80;94.80;;;;;;5054963;28;20154;-67
2023/01/06 02:00:41;;;;;;;9.45;2.08;;;9.80;94.80;;;;;;5052175;28;20032;-67
2023/01/06 02:03:08;;;;;;;11.02;2.30;;;9.80;94.70;;;;;;5054222;28;20025;-67
2023/01/06 02:05:38;;;;;;;12.73;3.13;;;9.80;94.50;;;;;;5052215;28;20036;-68
2023/01/06 02:08:19;;;;;;;10.05;2.42;;;9.80;94.30;;;;;;5050073;28;20021;-67
2023/01/06 02:10:45;;;;;;;11.30;1.88;;;9.80;94.40;;;;;;5051654;28;20033;-67
2023/01/06 02:13:11;;;;;;;9.35;2.50;;;9.80;94.40;;;;;;5053980;28;20228;-67
2023/01/06 02:15:37;;;;;;;14.95;2.70;;;9.80;94.10;;;;;;5054363;28;20049;-67
2023/01/06 02:18:23;;;;;;;10.73;2.40;;;9.80;94.00;;;;;;5053530;28;20028;-66
2023/01/06 02:21:00;;;;;;;8.88;2.60;;;9.80;93.90;;;;;;5051948;28;20049;-69
2023/01/06 02:23:35;;;;;;;8.73;2.10;;;9.90;93.70;;;;;;5053434;28;20178;-68
2023/01/06 02:26:54;;;;;;;10.63;2.03;;;9.80;93.70;;;;;;5049331;28;20028;-68
2023/01/06 02:29:37;;;;;;;9.57;2.20;;;9.80;93.70;;;;;;5029104;28;20083;-68
2023/01/06 02:32:20;;;;;;;11.60;2.58;;;9.80;93.90;;;;;;5028605;28;20372;-68
2023/01/06 02:34:45;;;;;;;9.40;2.60;;;9.80;94.10;;;;;;5046976;28;20493;-68
2023/01/06 02:37:39;;;;;;;11.80;3.30;;;9.80;94.20;;;;;;5049523;28;20065;-68
2023/01/06 02:40:11;;;;;;;13.80;2.30;;;9.70;94.30;;;;;;5049251;28;20077;-67
2023/01/06 02:42:50;;;;;;;7.20;2.30;;;9.70;94.30;;;;;;5053964;28;20044;-67
2023/01/06 02:45:27;;;;;;;11.27;2.40;;;9.70;94.50;;;;;;5052916;28;20025;-67
2023/01/06 02:48:34;;;;;;;12.15;2.28;;;9.70;94.60;;;;;;5047346;28;20025;-72
2023/01/06 02:51:17;;;;;;;8.18;2.15;;;9.60;94.70;;;;;;5049511;28;20033;-67
2023/01/06 02:54:11;;;;;;;8.88;2.72;;;9.60;94.70;;;;;;5050130;28;20071;-68
2023/01/06 02:56:48;;;;;;;7.28;2.20;;;9.60;94.90;;;;;;5042552;28;20174;-67
2023/01/06 02:59:24;;;;;;;9.63;2.30;;;9.60;95.00;;;;;;5053018;28;20033;-68
2023/01/06 03:01:53;;;;;;;11.63;1.92;;;9.60;95.40;;;;;;5054564;28;20028;-67
2023/01/06 03:04:24;;;;;;;10.48;2.55;;;9.60;95.20;;;;;;5054068;28;20029;-67
2023/01/06 03:06:53;;;;;;;9.88;2.33;;;9.60;95.10;;;;;;5053582;28;20036;-67
2023/01/06 03:09:22;;;;;;;7.88;1.98;;;9.50;95.10;;;;;;5050673;28;20098;-68
2023/01/06 03:11:50;;;;;;;8.63;2.10;;;9.50;95.00;;;;;;5053307;28;20028;-68
2023/01/06 03:14:49;;;;;;;6.22;2.15;;;9.50;95.00;;;;;;5052923;28;20120;-68
2023/01/06 03:17:14;;;;;;;9.70;2.42;;;9.50;95.10;;;;;;5050420;28;20041;-68
2023/01/06 03:19:41;;;;;;;9.20;2.30;;;9.50;95.10;;;;;;5053192;28;20107;-68
2023/01/06 03:22:08;;;;;;;13.32;2.60;;;9.40;95.30;;;;;;5052716;28;20086;-68
2023/01/06 03:24:36;;;;;;;10.07;2.55;;;9.40;95.50;;;;;;5053094;28;20025;-68
2023/01/06 03:27:02;;;;;;;13.50;2.72;;;9.40;95.60;;;;;;5052626;28;20017;-67
2023/01/06 03:29:28;;;;;;;12.55;2.35;;;9.30;95.60;;;;;;5053006;28;20013;-67
2023/01/06 03:32:03;;;;;;;11.23;2.83;;;9.30;96.00;;;;;;5052690;28;20032;-73
2023/01/06 03:34:35;;;;;;;17.33;3.33;;;9.30;96.00;;;;;;5050869;28;20025;-68
2023/01/06 03:37:39;;;;;;;9.45;2.40;;;9.30;96.20;;;;;;5052475;28;20025;-68
2023/01/06 03:40:12;;;;;;;9.45;2.63;;;9.20;96.40;;;;;;5049464;28;20044;-67
2023/01/06 03:45:49;;;;;;;10.48;2.53;;;9.20;96.70;;;;;;5050737;28;20445;-67
2023/01/06 03:48:38;;;;;;;9.30;2.70;;;9.10;97.00;;;;;;5051110;28;20029;-67
2023/01/06 03:51:32;;;;;;;12.25;2.88;;;9.10;97.20;;;;;;5051919;28;20104;-67
2023/01/06 03:54:27;;;;;;;9.18;2.60;;;9.10;97.50;;;;;;5045289;28;20037;-68
2023/01/06 03:57:15;;;;;;;12.40;2.42;;;9.00;97.70;;;;;;5041243;28;20485;-67
2023/01/06 04:00:00;;;;;;;10.25;2.70;;;9.00;97.90;;;;;;5051213;28;20370;-68
2023/01/06 04:02:27;;;;;;;13.68;2.80;;;9.00;98.00;;;;;;5050011;28;20035;-66
2023/01/06 04:05:15;;;;;;;14.60;2.95;;;9.00;98.20;;;;;;5052354;28;20074;-66
2023/01/06 04:07:42;;;;;;;13.00;2.88;;;8.90;98.30;;;;;;5051746;28;20028;-68
2023/01/06 04:10:10;;;;;;;9.20;2.47;;;8.90;98.60;;;;;;5051910;28;20390;-67
2023/01/06 04:12:38;;;;;;;10.15;2.58;;;8.90;98.70;;;;;;5053191;28;20458;-69
2023/01/06 04:15:12;;;;;;;13.32;2.70;;;8.90;99.00;;;;;;5051711;28;20031;-67
2023/01/06 04:17:39;;;;;;;10.07;2.40;;;8.80;99.10;;;;;;5049808;28;20116;-66
2023/01/06 04:20:08;;;;;;;12.15;2.78;;;8.80;99.30;;;;;;5051521;28;20029;-68
2023/01/06 04:22:34;;;;;;;13.32;2.67;;;8.80;99.50;;;;;;5051745;28;20025;-68
2023/01/06 04:25:00;;;;;;;10.38;2.58;;;8.80;99.70;;;;;;5052062;28;20029;-67
2023/01/06 04:27:25;;;;;;;11.20;2.38;;;8.70;99.70;;;;;;5052419;28;20029;-68
2023/01/06 04:29:51;;;;;;;13.00;2.65;;;8.70;99.70;;;;;;5052053;28;20028;-67
2023/01/06 04:32:17;;;;;;;9.68;2.28;;;8.70;99.70;;;;;;5051814;28;20032;-67
2023/01/06 04:34:43;;;;;;;17.50;2.72;;;8.70;99.70;;;;;;5052323;28;20039;-67
2023/01/06 04:37:08;;;;;;;14.75;3.17;;;8.70;99.90;;;;;;5051869;28;20025;-68
2023/01/06 04:39:34;;;;;;;8.82;2.17;;;8.60;99.90;;;;;;5052144;28;20056;-67
2023/01/06 04:41:59;;;;;;;8.10;2.30;;;8.60;99.90;;;;;;5051442;28;20033;-67
2023/01/06 04:44:25;;;;;;;16.75;3.13;;;8.60;99.90;;;;;;5052129;28;20054;-67
2023/01/06 04:46:51;;;;;;;17.13;3.00;;;8.60;99.90;;;;;;5052113;28;20028;-68
2023/01/06 04:49:16;;;;;;;10.88;2.50;;;8.60;99.90;;;;;;5051806;28;20029;-67
2023/01/06 04:51:42;;;;;;;16.75;2.50;;;8.60;99.90;;;;;;5051598;28;20052;-67
2023/01/06 04:54:08;;;;;;;12.13;2.47;;;8.60;99.90;;;;;;5050035;28;20474;-67
2023/01/06 04:56:33;;;;;;;8.70;2.22;;;8.60;99.90;;;;;;5052761;28;20024;-68
2023/01/06 04:58:59;;;;;;;10.68;2.42;;;8.60;99.90;;;;;;5051748;28;20025;-68
2023/01/06 05:01:25;;;;;;;13.82;3.30;;;8.60;99.90;;;;;;5052021;28;20025;-67
2023/01/06 05:03:51;;;;;;;8.60;2.60;;;8.60;99.90;;;;;;5052116;28;20083;-68
2023/01/06 05:06:18;;;;;;;11.98;2.63;;;8.60;99.90;;;;;;5051168;28;20033;-66
2023/01/06 05:08:44;;;;;;;9.82;2.42;;;8.60;99.90;;;;;;5051480;28;20421;-67
2023/01/06 05:11:17;;;;;;;14.15;2.78;;;8.60;99.90;;;;;;5051274;28;20069;-69
2023/01/06 05:13:43;;;;;;;11.25;2.35;;;8.60;99.90;;;;;;5052011;28;20025;-66
2023/01/06 05:16:15;;;;;;;14.95;2.78;;;8.60;99.90;;;;;;5051469;28;20083;-66
2023/01/06 05:18:40;;;;;;;14.30;3.03;;;8.60;99.90;;;;;;5051526;28;20057;-68
2023/01/06 05:21:06;;;;;;;11.95;2.63;;;8.50;99.90;;;;;;5051319;28;20068;-67
2023/01/06 05:23:32;;;;;;;10.27;2.50;;;8.60;99.90;;;;;;5053774;28;20116;-67
2023/01/06 05:25:58;;;;;;;14.43;2.85;;;8.60;99.90;;;;;;5055853;28;20369;-72
2023/01/06 05:28:24;;;;;;;10.95;2.63;;;8.60;99.90;;;;;;5055422;28;20029;-68
2023/01/06 05:30:49;;;;;;;11.38;2.58;;;8.60;99.90;;;;;;5054458;28;20139;-67
2023/01/06 05:33:15;;;;;;;11.55;2.67;;;8.60;99.90;;;;;;5055315;28;20123;-67
2023/01/06 05:35:41;;;;;;;12.98;2.42;;;8.60;99.90;;;;;;5055562;28;20360;-68
2023/01/06 05:38:07;;;;;;;10.75;2.78;;;8.60;99.90;;;;;;5055132;28;20077;-68
2023/01/06 05:40:34;;;;;;;13.38;2.85;;;8.60;99.90;;;;;;5055443;28;20504;-68
2023/01/06 05:42:59;;;;;;;14.13;3.53;;;8.70;99.90;;;;;;5055029;28;20036;-68
2023/01/06 05:45:25;;;;;;;9.30;3.35;;;8.70;99.90;;;;;;5055060;28;20020;-67
2023/01/06 05:47:51;;;;;;;15.00;3.97;;;8.60;99.90;;;;;;5055446;28;20389;-67
2023/01/06 05:50:17;;;;;;;18.30;4.45;;;8.70;99.90;;;;;;5054886;28;20029;-67
2023/01/06 05:52:42;;;;;;;13.23;3.10;;;8.70;99.90;;;;;;5055311;28;20044;-68
2023/01/06 05:55:08;;;;;;;10.15;3.72;;;8.70;99.90;;;;;;5054708;28;20377;-67
2023/01/06 05:57:35;;;;;;;11.63;2.80;;;8.60;99.90;;;;;;5054602;28;20435;-68
2023/01/06 06:00:04;;;;;;;12.95;3.13;;;8.60;99.90;;;;;;5054459;28;20030;-67
2023/01/06 06:02:30;;;;;;;11.35;2.42;;;8.70;99.90;;;;;;5054655;28;20418;-67
2023/01/06 06:04:56;;;;;;;12.18;2.47;;;8.70;99.90;;;;;;5053981;28;20021;-68
2023/01/06 06:07:21;;;;;;;11.90;2.70;;;8.70;99.90;;;;;;5054529;28;20063;-67
2023/01/06 06:09:47;;;;;;;10.23;2.88;;;8.70;99.90;;;;;;5053990;28;20389;-68
2023/01/06 06:12:13;;;;;;;11.27;2.83;;;8.80;99.90;;;;;;5054003;28;20029;-67
2023/01/06 06:14:38;;;;;;;11.85;3.15;;;8.80;99.90;;;;;;5054306;28;20029;-68
2023/01/06 06:17:04;;;;;;;16.02;3.40;;;8.80;99.90;;;;;;5053644;28;20029;-68
2023/01/06 06:19:29;;;;;;;13.27;2.97;;;8.80;99.90;;;;;;5052691;28;20023;-68
2023/01/06 06:21:55;;;;;;;12.15;3.25;;;8.80;99.90;;;;;;5053904;28;20135;-68
2023/01/06 06:24:21;;;;;;;9.73;2.63;;;8.80;99.90;;;;;;5054940;28;20370;-67
2023/01/06 06:26:46;;;;;;;13.23;3.13;;;8.90;99.90;;;;;;5055399;28;20025;-67
2023/01/06 06:29:12;;;;;;;12.88;2.95;;;8.90;99.90;;;;;;5055024;28;20463;-68
2023/01/06 06:31:38;;;;;;;10.65;3.30;;;8.90;99.90;;;;;;5055225;28;20537;-67
2023/01/06 06:34:04;;;;;;;13.80;3.08;;;9.00;99.90;;;;;;5051277;28;20033;-68
2023/01/06 06:36:30;;;;;;;12.20;3.03;;;9.00;99.90;;;;;;5054880;28;20029;-67
2023/01/06 06:38:57;;;;;;;18.38;3.08;;;9.00;99.90;;;;;;5054279;28;20362;-67
2023/01/06 06:41:24;;;;;;;12.45;2.88;;;9.10;99.90;;;;;;5054458;28;20386;-67
2023/01/06 06:43:52;;;;;;;13.07;3.15;;;9.10;99.90;;;;;;5054830;28;20094;-67
2023/01/06 06:46:18;;;;;;;18.00;4.85;;;9.10;99.90;;;;;;5054550;28;20108;-67
2023/01/06 06:48:44;;;;;;;11.15;2.70;;;9.10;99.90;;;;;;5054786;28;20087;-67
2023/01/06 06:51:13;;;;;;;9.55;2.75;;;9.10;99.90;;;;;;5053090;28;20030;-67
2023/01/06 06:53:39;;;;;;;12.88;2.55;;;9.10;99.90;;;;;;5053507;28;20021;-67
2023/01/06 06:56:06;;;;;;;14.40;3.13;;;9.20;99.90;;;;;;5050533;28;20025;-66
2023/01/06 06:58:33;;;;;;;16.90;3.13;;;9.20;99.90;;;;;;5053948;28;20025;-67
2023/01/06 07:01:02;;;;;;;18.95;3.40;;;9.20;99.90;;;;;;5054127;28;20029;-67
2023/01/06 07:03:27;;;;;;;13.48;2.67;;;9.30;99.90;;;;;;5054453;28;20033;-67
2023/01/06 07:05:53;;;;;;;14.45;3.53;;;9.30;99.90;;;;;;5054475;28;20028;-67
2023/01/06 07:08:19;;;;;;;12.80;3.10;;;9.30;99.90;;;;;;5053818;28;20029;-66
2023/01/06 07:10:44;;;;;;;12.77;3.00;;;9.30;99.90;;;;;;5054286;28;20037;-67
2023/01/06 07:13:10;;;;;;;15.68;4.35;;;9.40;99.90;;;;;;5053448;28;20052;-66
2023/01/06 07:15:36;;;;;;;17.02;3.13;;;9.40;99.90;;;;;;5054384;28;20025;-66
2023/01/06 07:18:04;;;;;;;13.00;3.80;;;9.40;99.90;;;;;;5054284;28;20347;-72
2023/01/06 07:20:31;;;;;;;10.05;2.60;;;9.40;99.90;;;;;;5054156;28;20484;-68
2023/01/06 07:22:57;;;;;;;16.80;3.33;;;9.50;99.90;;;;;;5053873;28;20473;-67
2023/01/06 07:25:23;;;;;;;21.27;2.95;;;9.50;99.90;;;;;;5053763;28;20163;-68
2023/01/06 07:27:54;;;;;;;12.55;2.60;;;9.50;99.90;;;;;;5053772;28;20029;-68
2023/01/06 07:30:20;;;;;;;15.00;3.08;;;9.60;99.90;;;;;;5053277;28;20033;-67
2023/01/06 07:32:46;;;;;;;16.13;3.20;;;9.60;99.90;;;;;;5053882;28;20037;-67
2023/01/06 07:35:12;;;;;;;13.85;2.65;;;9.60;99.90;;;;;;5053433;28;20083;-67
2023/01/06 07:37:37;;;;;;;10.20;2.28;;;9.70;99.90;;;;;;5054292;28;20401;-67
2023/01/06 07:40:03;;;;;;;17.17;2.90;;;9.70;99.90;;;;;;5053636;28;20520;-72
2023/01/06 07:42:29;;;;;;;14.07;2.97;;;9.80;99.90;;;;;;5053750;28;20482;-66
2023/01/06 07:44:55;;;;;;;11.80;2.70;;;9.80;99.90;;;;;;5053506;28;20060;-69
2023/01/06 07:47:20;;;;;;;13.38;3.33;;;9.90;99.90;;;;;;5053083;28;20032;-67
2023/01/06 07:49:46;;;;;;;16.23;3.13;;;9.80;99.90;;;;;;5053493;28;20029;-67
2023/01/06 07:52:11;;;;;;;16.02;3.67;;;9.80;99.90;;;;;;5053080;28;20079;-67
2023/01/06 07:54:37;;;;;;;17.95;3.83;;;9.90;99.90;;;;;;5053685;28;20055;-68
2023/01/06 07:57:03;;;;;;;13.88;3.13;;;9.90;99.90;;;;;;5053572;28;20462;-67
2023/01/06 07:59:29;;;;;;;18.13;3.30;;;9.90;99.90;;;;;;5053371;28;20036;-68
2023/01/06 08:01:55;;;;;;;11.60;2.88;;;9.90;99.90;;;;;;5053716;28;20032;-67
2023/01/06 08:04:20;;;;;;;14.52;3.13;;;9.90;99.90;;;;;;5052990;28;20492;-66
2023/01/06 08:06:46;;;;;;;11.95;3.08;;;10.00;99.90;;;;;;5053298;28;20155;-68
2023/01/06 08:09:11;;;;;;;19.00;4.35;;;10.10;99.90;;;;;;5052544;28;20070;-68
2023/01/06 08:11:37;;;;;;;17.70;3.42;;;10.00;99.90;;;;;;5053094;28;20037;-68
2023/01/06 08:14:03;;;;;;;15.10;3.67;;;10.10;99.90;;;;;;5053458;28;20028;-67
2023/01/06 08:16:28;;;;;;;12.23;3.33;;;10.10;99.90;;;;;;5052702;28;20029;-68
2023/01/06 08:18:54;;;;;;;18.13;3.50;;;10.10;99.90;;;;;;5051953;28;20055;-68
2023/01/06 08:21:20;;;;;;;16.75;4.10;;;10.10;99.90;;;;;;5052638;28;20054;-68
2023/01/06 08:23:45;;;;;;;10.95;3.83;;;10.10;99.90;;;;;;5053571;28;20384;-67
2023/01/06 08:26:14;;;;;;;15.55;3.55;;;10.10;99.90;;;;;;5052615;28;20095;-67
2023/01/06 08:28:41;;;;;;;18.50;3.95;;;10.10;99.90;;;;;;5053167;28;20032;-67
2023/01/06 08:31:12;;;;;;;16.42;4.13;;;10.10;99.90;;;;;;5052586;28;20037;-68
2023/01/06 08:33:38;;;;;;;15.40;4.05;;;10.10;99.90;;;;;;5053354;28;20029;-67
2023/01/06 08:36:06;;;;;;;12.68;3.67;;;10.10;99.90;;;;;;5053369;28;20025;-66
2023/01/06 08:38:33;;;;;;;15.35;3.58;;;10.10;99.90;;;;;;5052964;28;20025;-67
2023/01/06 08:41:00;;;;;;;17.30;4.13;;;10.10;99.90;;;;;;5052324;28;20139;-67
2023/01/06 08:43:26;;;;;;;9.93;3.85;;;10.10;99.90;;;;;;5051840;28;20029;-67
2023/01/06 08:45:52;;;;;;;14.18;4.88;;;10.10;99.90;;;;;;5052844;28;20021;-67
2023/01/06 08:48:19;;;;;;;11.25;4.18;;;10.10;99.90;;;;;;5052432;28;20108;-67
2023/01/06 08:50:45;;;;;;;10.32;3.83;;;10.00;99.90;;;;;;5052698;28;20029;-67
2023/01/06 08:53:11;;;;;;;13.65;3.63;;;10.00;99.90;;;;;;5052177;28;20032;-68
2023/01/06 08:55:38;;;;;;;12.40;3.42;;;9.90;99.90;;;;;;5052752;28;20025;-67
2023/01/06 08:58:04;;;;;;;15.55;3.75;;;9.90;99.90;;;;;;5051861;28;20025;-67
2023/01/06 09:00:30;;;;;;;15.82;3.65;;;9.90;99.90;;;;;;5051943;28;20492;-67
2023/01/06 09:02:56;;;;;;;14.60;4.00;;;9.90;99.90;;;;;;5052209;28;20040;-68
2023/01/06 09:05:21;;;;;;;11.98;3.05;;;9.90;99.90;;;;;;5050887;28;20032;-67
2023/01/06 09:07:49;;;;;;;14.27;3.60;;;9.90;99.90;;;;;;5052854;28;20095;-67
2023/01/06 09:10:15;;;;;;;12.57;3.25;;;9.80;99.90;;;;;;5051869;28;20442;-67
2023/01/06 09:12:41;;;;;;;16.35;3.50;;;9.80;99.90;;;;;;5051952;28;20048;-68
2023/01/06 09:15:07;;;;;;;15.43;4.43;;;9.80;99.90;;;;;;5051748;28;20029;-68
2023/01/06 09:17:33;;;;;;;16.02;4.25;;;9.80;99.90;;;;;;5051818;28;20477;-67
2023/01/06 09:19:59;;;;;;;11.88;3.75;;;9.80;99.90;;;;;;5051613;28;20032;-67
2023/01/06 09:22:24;;;;;;;11.80;4.30;;;9.80;99.90;;;;;;5049722;28;20059;-68
2023/01/06 09:24:50;;;;;;;10.30;3.13;;;9.70;99.90;;;;;;5050960;28;20025;-68
2023/01/06 09:27:15;;;;;;;11.60;3.08;;;9.80;99.90;;;;;;5050520;28;20514;-67
2023/01/06 09:29:41;;;;;;;13.70;3.35;;;9.80;99.90;;;;;;5050747;28;20025;-67
2023/01/06 09:32:07;;;;;;;11.68;3.80;;;9.80;99.90;;;;;;5051266;28;20182;-67
2023/01/06 09:34:33;;;;;;;9.75;3.60;;;9.80;99.90;;;;;;5051019;28;20070;-66
2023/01/06 09:36:58;;;;;;;15.55;3.67;;;9.80;99.90;;;;;;5051395;28;20040;-66
2023/01/06 09:39:24;;;;;;;16.83;4.47;;;9.80;99.90;;;;;;5050421;28;20056;-66
2023/01/06 09:42:14;;;;;;;15.02;7.13;;;9.80;99.90;;;;;;5050014;28;20118;-65
2023/01/06 09:45:05;;;;;;;16.25;4.75;;;9.80;99.90;;;;;;5051586;28;20032;-66
2023/01/06 09:47:41;;;;;;;17.95;4.72;;;9.80;99.90;;;;;;5050955;28;20118;-66
2023/01/06 09:50:15;;;;;;;13.80;4.40;;;9.80;99.90;;;;;;5051657;28;20116;-68
2023/01/06 09:52:51;;;;;;;12.50;4.65;;;9.90;99.90;;;;;;5051668;28;20124;-67
2023/01/06 09:55:19;;;;;;;8.70;3.08;;;9.90;99.90;;;;;;5051087;28;20082;-67
2023/01/06 09:57:55;;;;;;;11.80;3.45;;;10.00;99.90;;;;;;5051657;28;20366;-67
2023/01/06 10:00:39;;;;;;;13.57;3.17;;;10.00;99.90;;;;;;5050625;28;20373;-67
2023/01/06 10:03:10;;;;;;;13.27;3.70;;;10.10;99.90;;;;;;5051008;28;20067;-67
2023/01/06 10:06:00;;;;;;;14.68;3.13;;;10.10;99.90;;;;;;5050750;28;20632;-68
2023/01/06 10:09:03;;;;;;;14.63;3.70;;;10.20;99.90;;;;;;5051505;28;20489;-67
2023/01/06 10:12:06;;;;;;;12.15;3.10;;;10.20;99.90;;;;;;5054161;28;20245;-67
2023/01/06 10:14:58;;;;;;;10.35;2.97;;;10.30;99.90;;;;;;5054711;28;20029;-65
2023/01/06 10:17:48;;;;;;;7.57;2.70;;;10.40;99.90;;;;;;5054552;28;20438;-66
2023/01/06 10:20:29;;;;;;;8.68;3.35;;;10.40;99.90;;;;;;5054851;28;20090;-68
2023/01/06 10:23:00;;;;;;;11.52;3.35;;;10.50;99.90;;;;;;5054892;28;20366;-67
2023/01/06 10:25:38;;;;;;;11.55;4.00;;;10.60;99.90;;;;;;5053089;28;20094;-66
2023/01/06 10:28:22;;;;;;;7.75;2.83;;;10.70;99.90;;;;;;5054492;28;20437;-67
2023/01/06 10:30:50;;;;;;;8.40;2.75;;;10.80;99.90;;;;;;5054516;28;20044;-67
2023/01/06 10:33:39;;;;;;;6.70;2.47;;;11.00;99.90;;;;;;5053919;28;20025;-67
2023/01/06 10:36:12;;;;;;;8.38;2.75;;;11.10;99.90;;;;;;5053881;28;20029;-66
2023/01/06 10:38:47;;;;;;;8.00;2.83;;;11.40;99.90;;;;;;5035248;28;20065;-67
2023/01/06 10:41:36;;;;;;;6.72;2.65;;;11.50;99.90;;;;;;5053728;28;20041;-67
2023/01/06 10:44:02;;;;;;;8.02;2.85;;;11.70;99.90;;;;;;5054277;28;20024;-67
2023/01/06 10:46:33;;;;;;;7.65;2.22;;;12.00;99.90;;;;;;5053908;28;20381;-67
2023/01/06 10:49:03;;;;;;;8.88;3.40;;;12.10;99.90;;;;;;5054626;28;20040;-68
2023/01/06 10:51:36;;;;;;;8.43;2.20;;;12.10;99.90;;;;;;5054354;28;20491;-68
2023/01/06 10:54:07;;;;;;;6.13;2.22;;;12.20;99.90;;;;;;5054850;28;20044;-68
2023/01/06 10:56:34;;;;;;;6.97;2.50;;;12.30;99.90;;;;;;5054638;28;20163;-66
2023/01/06 10:59:11;;;;;;;7.10;2.58;;;12.30;99.90;;;;;;5053600;28;20032;-66
2023/01/06 11:01:57;;;;;;;7.50;2.50;;;12.40;99.90;;;;;;5053848;28;20393;-67
2023/01/06 11:04:25;;;;;;;5.68;2.10;;;12.50;99.90;;;;;;5054611;28;20020;-66
2023/01/06 11:06:57;;;;;;;7.93;2.22;;;12.70;99.90;;;;;;5055738;28;20025;-68
2023/01/06 11:09:35;;;;;;;8.73;2.28;;;12.70;99.80;;;;;;5055915;28;20059;-68
2023/01/06 11:12:10;;;;;;;7.95;2.05;;;12.70;99.80;;;;;;5055728;28;20033;-67
2023/01/06 11:14:36;;;;;;;7.05;2.33;;;12.80;99.70;;;;;;5055407;28;20066;-67
2023/01/06 11:17:06;;;;;;;7.43;1.85;;;12.80;99.50;;;;;;5055670;28;20028;-67
2023/01/06 11:19:34;;;;;;;7.43;2.08;;;12.80;99.10;;;;;;5055027;28;20436;-67
2023/01/06 11:22:00;;;;;;;8.30;2.35;;;12.80;99.10;;;;;;5054056;28;20025;-67
2023/01/06 11:24:28;;;;;;;5.38;2.28;;;12.90;98.70;;;;;;5054319;28;20021;-67
2023/01/06 11:26:56;;;;;;;6.75;2.35;;;12.90;98.30;;;;;;5054408;28;20036;-67
2023/01/06 11:29:33;;;;;;;5.93;2.20;;;12.90;98.50;;;;;;5054214;28;20104;-67
2023/01/06 11:32:10;;;;;;;6.95;2.28;;;13.00;98.10;;;;;;5054687;28;20470;-66
2023/01/06 11:34:35;;;;;;;5.00;2.00;;;13.00;97.90;;;;;;5054042;28;20549;-66
2023/01/06 11:37:01;;;;;;;5.35;2.13;;;12.90;97.20;;;;;;5054108;28;20117;-67
2023/01/06 11:39:32;;;;;;;5.60;2.28;;;13.00;97.50;;;;;;5053649;28;20512;-67
2023/01/06 11:42:09;;;;;;;6.72;2.13;;;13.00;97.10;;;;;;5053869;28;20040;-67
2023/01/06 11:44:38;;;;;;;4.28;1.63;;;12.90;97.20;;;;;;5052479;28;20094;-66
2023/01/06 11:47:17;;;;;;;5.22;2.13;;;13.00;97.10;;;;;;5053780;28;20052;-66
2023/01/06 11:49:51;;;;;;;6.35;1.70;;;13.10;96.80;;;;;;5053986;28;20025;-68
2023/01/06 11:52:16;;;;;;;2.88;1.55;;;13.20;96.50;;;;;;5053513;28;20079;-68
2023/01/06 11:54:43;;;;;;;6.47;1.80;;;13.20;96.10;;;;;;5054120;28;20450;-67
2023/01/06 11:57:25;;;;;;;7.18;1.70;;;13.30;96.10;;;;;;5052914;28;20021;-68
2023/01/06 12:00:14;;;;;;;5.95;1.80;;;13.40;95.70;;;;;;5053413;28;20326;-67
2023/01/06 12:03:07;;;;;;;7.45;2.30;;;13.40;95.60;;;;;;5052328;28;20035;-66
2023/01/06 12:06:10;;;;;;;4.30;1.58;;;13.50;95.90;;;;;;5053045;28;20114;-66
2023/01/06 12:08:57;;;;;;;3.90;1.40;;;13.60;95.70;;;;;;5052721;28;20025;-67
2023/01/06 12:11:49;;;;;;;2.22;1.20;;;13.60;95.00;;;;;;5053043;28;20033;-66
2023/01/06 12:14:20;;;;;;;4.70;1.52;;;13.60;94.50;;;;;;5051855;28;20119;-73
2023/01/06 12:17:10;;;;;;;5.88;1.50;;;13.70;94.60;;;;;;5053411;28;20021;-67
2023/01/06 12:19:39;;;;;;;5.82;1.60;;;13.70;94.20;;;;;;5052689;28;20450;-66
2023/01/06 12:22:19;;;;;;;4.35;1.40;;;13.70;93.30;;;;;;5052935;28;20440;-66
2023/01/06 12:24:47;;;;;;;5.60;1.80;;;13.60;93.00;;;;;;5053467;28;20036;-66
2023/01/06 12:27:26;;;;;;;4.57;1.42;;;13.60;93.20;;;;;;5052765;28;20029;-67
2023/01/06 12:29:56;;;;;;;4.35;1.45;;;13.50;93.30;;;;;;5052947;28;20029;-68
2023/01/06 12:32:26;;;;;;;3.97;1.40;;;13.40;93.30;;;;;;5052244;28;20474;-68
2023/01/06 12:34:54;;;;;;;5.07;1.60;;;13.40;93.50;;;;;;5038585;28;20470;-67
2023/01/06 12:37:31;;;;;;;6.63;1.67;;;13.30;93.80;;;;;;5032584;28;20028;-68
2023/01/06 12:40:22;;;;;;;5.13;1.42;;;13.30;94.00;;;;;;5033343;28;20054;-66
2023/01/06 12:43:16;;;;;;;3.28;1.55;;;13.20;94.40;;;;;;5033270;28;20558;-67
2023/01/06 12:45:49;;;;;;;4.43;1.42;;;13.20;94.30;;;;;;5033008;28;20037;-66
2023/01/06 12:48:27;;;;;;;3.10;1.33;;;13.10;94.60;;;;;;5033054;28;20378;-66
2023/01/06 12:51:15;;;;;;;4.13;1.35;;;13.10;94.80;;;;;;5032749;28;20474;-66
2023/01/06 12:53:52;;;;;;;3.63;1.73;;;13.10;94.90;;;;;;5032271;28;20472;-66
2023/01/06 12:56:27;;;;;;;4.50;1.38;;;13.00;95.30;;;;;;5032547;28;20029;-69
2023/01/06 12:59:14;;;;;;;5.10;1.50;;;12.90;95.60;;;;;;5032925;28;20026;-67
2023/01/06 13:01:58;;;;;;;2.92;1.40;;;12.90;95.80;;;;;;5032303;28;20034;-67
2023/01/06 13:04:42;;;;;;;3.53;1.48;;;12.90;96.00;;;;;;5032169;28;20049;-67
2023/01/06 13:07:29;;;;;;;5.15;1.73;;;12.80;96.30;;;;;;5032531;28;20034;-67
2023/01/06 13:10:10;;;;;;;5.60;1.70;;;12.80;96.70;;;;;;5032833;28;20136;-67
2023/01/06 13:12:41;;;;;;;4.20;1.67;;;12.80;97.30;;;;;;5032316;28;20029;-68